Time;durP1;ratioP1;P1;durP2;ratioP2;P2;SDS_P1;SDS_P2;PMS_P1;PMS_P2;Temp;Humidity;BMP_temperature;BMP_pressure;BME280_temperature;BME280_humidity;BME280_pressure;Samples;Min_cycle;Max_cycle;Signal;HPM_P1;HPM_P2
2022/08/03 00:02:24;;;;;;;7.10;3.05;;;19.40;99.90;;;;;;5057418;28;20048;-70
2022/08/03 00:04:49;;;;;;;7.28;3.15;;;19.40;99.90;;;;;;5024367;28;20131;-69
2022/08/03 00:07:15;;;;;;;8.10;3.10;;;19.50;99.90;;;;;;5041707;28;20036;-70
2022/08/03 00:09:41;;;;;;;9.13;3.28;;;19.50;99.90;;;;;;5024470;28;20045;-70
2022/08/03 00:12:07;;;;;;;6.80;2.97;;;19.50;99.90;;;;;;5053454;28;20078;-70
2022/08/03 00:14:33;;;;;;;7.72;3.72;;;19.50;99.90;;;;;;5022375;28;20041;-70
2022/08/03 00:16:59;;;;;;;8.13;3.33;;;19.50;99.90;;;;;;5055643;28;20115;-70
2022/08/03 00:19:25;;;;;;;5.45;2.80;;;19.60;99.90;;;;;;5025214;28;20111;-69
2022/08/03 00:21:50;;;;;;;13.27;3.28;;;19.50;99.90;;;;;;5003687;28;20432;-70
2022/08/03 00:24:16;;;;;;;7.40;3.22;;;19.50;99.90;;;;;;5039669;28;20042;-70
2022/08/03 00:26:42;;;;;;;9.48;2.90;;;19.50;99.90;;;;;;5057339;28;20486;-70
2022/08/03 00:29:08;;;;;;;5.65;3.13;;;19.50;99.90;;;;;;5043137;28;20040;-69
2022/08/03 00:31:33;;;;;;;7.57;3.97;;;19.50;99.90;;;;;;5022592;28;20370;-70
2022/08/03 00:33:59;;;;;;;12.13;2.95;;;19.40;99.90;;;;;;5034036;28;20583;-70
2022/08/03 00:36:25;;;;;;;3.97;2.80;;;19.30;99.90;;;;;;5039036;28;20056;-70
2022/08/03 00:38:51;;;;;;;7.13;2.90;;;19.30;99.90;;;;;;5035992;28;20348;-70
2022/08/03 00:41:16;;;;;;;6.60;3.30;;;19.20;99.90;;;;;;5061573;28;20047;-70
2022/08/03 00:43:43;;;;;;;7.28;2.60;;;19.10;99.90;;;;;;5041056;28;20234;-70
2022/08/03 00:46:09;;;;;;;4.20;2.90;;;19.00;99.90;;;;;;5034459;28;20060;-70
2022/08/03 00:48:35;;;;;;;5.25;3.22;;;18.90;99.90;;;;;;5019535;28;20116;-70
2022/08/03 00:51:01;;;;;;;6.72;3.75;;;18.90;99.90;;;;;;5033669;28;20463;-70
2022/08/03 00:53:27;;;;;;;6.78;3.40;;;18.80;99.90;;;;;;5018690;28;20086;-70
2022/08/03 00:55:53;;;;;;;9.02;3.60;;;18.80;99.90;;;;;;5025066;28;20075;-70
2022/08/03 00:58:19;;;;;;;8.70;3.50;;;18.70;99.90;;;;;;5058611;28;20441;-70
2022/08/03 01:00:45;;;;;;;6.32;3.40;;;18.60;99.90;;;;;;5035001;28;20543;-70
2022/08/03 01:03:11;;;;;;;9.57;3.78;;;18.50;99.90;;;;;;5016621;28;20099;-70
2022/08/03 01:06:18;;;;;;;7.30;3.92;;;18.40;99.90;;;;;;5026714;28;20041;-70
2022/08/03 01:09:07;;;;;;;9.43;3.88;;;18.40;99.90;;;;;;5039829;28;20063;-70
2022/08/03 01:11:43;;;;;;;11.50;3.90;;;18.40;99.90;;;;;;5035253;28;20048;-70
2022/08/03 01:14:14;;;;;;;9.43;4.30;;;18.30;99.90;;;;;;5039584;28;20054;-70
2022/08/03 01:17:16;;;;;;;10.63;4.20;;;18.30;99.90;;;;;;5039900;28;20037;-70
2022/08/03 01:19:53;;;;;;;9.95;4.00;;;18.30;99.90;;;;;;5040615;28;20288;-70
2022/08/03 01:22:49;;;;;;;10.07;4.90;;;18.30;99.90;;;;;;5036543;28;20075;-69
2022/08/03 01:25:41;;;;;;;8.80;4.03;;;18.20;99.90;;;;;;5043208;28;20051;-70
2022/08/03 01:28:18;;;;;;;11.27;4.73;;;18.30;99.90;;;;;;5019823;28;20037;-70
2022/08/03 01:30:46;;;;;;;9.75;3.80;;;18.30;99.90;;;;;;5040705;28;20095;-69
2022/08/03 01:33:17;;;;;;;7.38;4.22;;;18.40;99.90;;;;;;5021711;28;20142;-69
2022/08/03 01:35:54;;;;;;;7.77;3.43;;;18.40;99.90;;;;;;5023256;28;20041;-69
2022/08/03 01:38:30;;;;;;;9.13;4.18;;;18.40;99.90;;;;;;5040732;28;20398;-70
2022/08/03 01:41:00;;;;;;;9.77;4.30;;;18.40;99.90;;;;;;5036892;28;20037;-70
2022/08/03 01:43:29;;;;;;;9.70;4.22;;;18.40;99.90;;;;;;5037405;28;20120;-69
2022/08/03 01:45:56;;;;;;;7.43;4.15;;;18.40;99.90;;;;;;5036792;28;20065;-70
2022/08/03 01:48:22;;;;;;;8.25;4.00;;;18.40;99.90;;;;;;5038855;28;20129;-70
2022/08/03 01:50:50;;;;;;;6.93;3.95;;;18.40;99.90;;;;;;5039769;28;20045;-70
2022/08/03 01:53:17;;;;;;;11.60;4.50;;;18.50;99.90;;;;;;5036717;28;20048;-70
2022/08/03 01:55:47;;;;;;;9.02;4.10;;;18.50;99.90;;;;;;5038747;28;20634;-70
2022/08/03 01:58:15;;;;;;;7.28;3.42;;;18.60;99.90;;;;;;5037642;28;20438;-70
2022/08/03 02:00:42;;;;;;;6.15;4.15;;;18.60;99.90;;;;;;5034593;28;20087;-70
2022/08/03 02:03:11;;;;;;;7.82;3.90;;;18.60;99.90;;;;;;5033365;28;20506;-70
2022/08/03 02:05:38;;;;;;;6.95;3.97;;;18.60;99.90;;;;;;5037805;28;21634;-70
2022/08/03 02:08:09;;;;;;;6.82;4.22;;;18.70;99.90;;;;;;5038273;28;20049;-70
2022/08/03 02:10:36;;;;;;;13.45;3.97;;;18.70;99.90;;;;;;5038532;28;20037;-70
2022/08/03 02:13:05;;;;;;;11.40;3.88;;;18.70;99.90;;;;;;5055297;28;20057;-70
2022/08/03 02:15:32;;;;;;;9.27;4.32;;;18.70;99.90;;;;;;5052818;28;20047;-69
2022/08/03 02:18:00;;;;;;;7.85;4.43;;;18.70;99.90;;;;;;5022355;28;20037;-69
2022/08/03 02:20:27;;;;;;;9.32;3.88;;;18.70;99.90;;;;;;5019685;28;20041;-70
2022/08/03 02:22:53;;;;;;;11.60;4.07;;;18.70;99.90;;;;;;5040313;28;20045;-70
2022/08/03 02:25:19;;;;;;;7.18;3.80;;;18.60;99.90;;;;;;5033291;28;20421;-70
2022/08/03 02:28:14;;;;;;;9.90;4.40;;;18.60;99.90;;;;;;5042592;28;20073;-70
2022/08/03 02:30:42;;;;;;;6.15;3.80;;;18.60;99.90;;;;;;5011783;28;20053;-70
2022/08/03 02:33:11;;;;;;;11.95;4.47;;;18.60;99.90;;;;;;5039890;28;20567;-70
2022/08/03 02:35:39;;;;;;;8.35;4.18;;;18.60;99.90;;;;;;5053621;28;20462;-70
2022/08/03 02:38:08;;;;;;;8.95;4.05;;;18.60;99.90;;;;;;5040961;28;20166;-70
2022/08/03 02:40:37;;;;;;;6.22;4.10;;;18.60;99.90;;;;;;5057189;28;20032;-70
2022/08/03 02:43:07;;;;;;;8.98;3.95;;;18.50;99.90;;;;;;5018474;28;20112;-70
2022/08/03 02:45:37;;;;;;;8.52;4.00;;;18.50;99.90;;;;;;5041312;28;20068;-70
2022/08/03 02:48:05;;;;;;;8.65;4.70;;;18.40;99.90;;;;;;5037383;28;20087;-70
2022/08/03 02:50:33;;;;;;;8.15;4.50;;;18.40;99.90;;;;;;5007284;28;20474;-70
2022/08/03 02:53:01;;;;;;;7.05;4.15;;;18.30;99.90;;;;;;5059664;28;20188;-70
2022/08/03 02:55:27;;;;;;;5.70;3.70;;;18.30;99.90;;;;;;5041037;28;20716;-70
2022/08/03 02:57:55;;;;;;;8.07;4.00;;;18.30;99.90;;;;;;5038183;28;20052;-70
2022/08/03 03:00:22;;;;;;;7.28;3.60;;;18.30;99.90;;;;;;5034280;28;20352;-70
2022/08/03 03:02:58;;;;;;;9.63;4.55;;;18.20;99.90;;;;;;5043667;28;20397;-70
2022/08/03 03:05:27;;;;;;;8.82;4.53;;;18.20;99.90;;;;;;5034252;28;20059;-70
2022/08/03 03:07:54;;;;;;;9.70;4.07;;;18.20;99.90;;;;;;5055912;28;20052;-70
2022/08/03 03:10:25;;;;;;;11.30;4.97;;;18.20;99.90;;;;;;5036444;28;20025;-70
2022/08/03 03:12:55;;;;;;;8.30;3.85;;;18.20;99.90;;;;;;5038081;28;20045;-70
2022/08/03 03:15:24;;;;;;;8.35;4.00;;;18.20;99.90;;;;;;5038578;28;20037;-70
2022/08/03 03:17:51;;;;;;;7.05;3.92;;;18.30;99.90;;;;;;5038522;28;20125;-70
2022/08/03 03:20:20;;;;;;;6.70;3.72;;;18.20;99.90;;;;;;5038780;28;20040;-70
2022/08/03 03:22:47;;;;;;;7.13;3.90;;;18.30;99.90;;;;;;5028690;28;20397;-70
2022/08/03 03:25:17;;;;;;;9.05;3.85;;;18.30;99.90;;;;;;5049050;28;20127;-70
2022/08/03 03:27:43;;;;;;;8.80;3.55;;;18.30;99.90;;;;;;5022996;28;20049;-70
2022/08/03 03:30:09;;;;;;;7.95;4.00;;;18.30;99.90;;;;;;5040191;28;20032;-71
2022/08/03 03:32:35;;;;;;;7.05;4.05;;;18.30;99.90;;;;;;5023540;28;20105;-70
2022/08/03 03:35:03;;;;;;;7.57;3.53;;;18.30;99.90;;;;;;5037210;28;20049;-70
2022/08/03 03:37:29;;;;;;;13.23;3.50;;;18.40;99.90;;;;;;5040343;28;20045;-70
2022/08/03 03:39:55;;;;;;;6.95;3.45;;;18.40;99.90;;;;;;5019587;28;20069;-70
2022/08/03 03:42:21;;;;;;;9.75;3.40;;;18.40;99.90;;;;;;5025811;28;20049;-70
2022/08/03 03:44:47;;;;;;;12.57;3.90;;;18.40;99.90;;;;;;5054746;28;20037;-70
2022/08/03 03:47:13;;;;;;;9.88;3.65;;;18.40;99.90;;;;;;5037712;28;20051;-70
2022/08/03 03:49:39;;;;;;;8.32;3.47;;;18.40;99.90;;;;;;5011199;28;20524;-70
2022/08/03 03:52:05;;;;;;;11.38;3.47;;;18.40;99.90;;;;;;5040957;28;20155;-70
2022/08/03 03:54:41;;;;;;;9.20;3.88;;;18.40;99.90;;;;;;5042515;28;20428;-70
2022/08/03 03:57:09;;;;;;;7.85;3.70;;;18.40;99.90;;;;;;5044706;28;20032;-70
2022/08/03 03:59:38;;;;;;;6.97;3.50;;;18.40;99.90;;;;;;5054922;28;20078;-70
2022/08/03 04:02:06;;;;;;;9.60;3.85;;;18.40;99.90;;;;;;5041661;28;20098;-70
2022/08/03 04:12:52;;;;;;;12.88;4.13;;;18.30;99.90;;;;;;5041344;28;20052;-69
2022/08/03 04:15:21;;;;;;;9.60;3.47;;;18.20;99.90;;;;;;5021740;28;20079;-70
2022/08/03 04:17:49;;;;;;;5.80;3.15;;;18.20;99.90;;;;;;5056979;28;20307;-70
2022/08/03 04:20:18;;;;;;;8.93;3.47;;;18.20;99.90;;;;;;5024641;28;20043;-70
2022/08/03 04:22:46;;;;;;;9.63;3.65;;;18.20;99.90;;;;;;5038932;28;20040;-70
2022/08/03 04:25:17;;;;;;;9.05;3.25;;;18.20;99.90;;;;;;5035113;28;20040;-70
2022/08/03 04:27:43;;;;;;;6.20;3.30;;;18.20;99.90;;;;;;5039788;28;20080;-70
2022/08/03 04:30:10;;;;;;;8.98;3.20;;;18.20;99.90;;;;;;5039534;28;20037;-70
2022/08/03 04:32:37;;;;;;;9.80;3.58;;;18.20;99.90;;;;;;5051452;28;20120;-70
2022/08/03 04:35:05;;;;;;;11.73;3.78;;;18.20;99.90;;;;;;5036815;28;20070;-70
2022/08/03 04:37:36;;;;;;;7.35;3.65;;;18.20;99.90;;;;;;5038062;28;20504;-70
2022/08/03 04:40:07;;;;;;;5.97;3.20;;;18.20;99.90;;;;;;5056594;28;20679;-70
2022/08/03 04:42:34;;;;;;;5.65;3.50;;;18.20;99.90;;;;;;5061409;28;20052;-70
2022/08/03 04:45:03;;;;;;;9.68;3.78;;;18.20;99.90;;;;;;5020684;28;20051;-70
2022/08/03 04:47:31;;;;;;;6.55;3.45;;;18.20;99.90;;;;;;5036238;28;20084;-70
2022/08/03 04:50:02;;;;;;;11.23;3.60;;;18.20;99.90;;;;;;5006391;28;20033;-70
2022/08/03 04:52:29;;;;;;;8.23;3.85;;;18.20;99.90;;;;;;5059092;28;20459;-70
2022/08/03 04:54:55;;;;;;;9.07;4.07;;;18.30;99.90;;;;;;5022720;28;20021;-70
2022/08/03 04:57:21;;;;;;;8.23;3.58;;;18.30;99.90;;;;;;5060869;28;20032;-70
2022/08/03 04:59:48;;;;;;;10.25;4.00;;;18.30;99.90;;;;;;5045942;28;20029;-70
2022/08/03 05:02:14;;;;;;;8.70;4.10;;;18.40;99.90;;;;;;5043304;28;20623;-70
2022/08/03 05:04:45;;;;;;;8.18;3.88;;;18.40;99.90;;;;;;5055803;28;20045;-70
2022/08/03 05:07:11;;;;;;;7.07;4.15;;;18.50;99.90;;;;;;5027081;28;20036;-70
2022/08/03 05:09:37;;;;;;;10.57;4.28;;;18.50;99.90;;;;;;5042787;28;20086;-70
2022/08/03 05:12:04;;;;;;;7.65;3.40;;;18.50;99.90;;;;;;5042764;28;20472;-70
2022/08/03 05:14:30;;;;;;;9.50;4.75;;;18.50;99.90;;;;;;5016894;28;20105;-70
2022/08/03 05:16:56;;;;;;;11.15;3.88;;;18.60;99.90;;;;;;5027047;28;20536;-70
2022/08/03 05:19:21;;;;;;;11.35;4.22;;;18.60;99.90;;;;;;5030660;28;20162;-70
2022/08/03 05:21:47;;;;;;;8.15;4.45;;;18.70;99.90;;;;;;5040663;28;20036;-70
2022/08/03 05:24:12;;;;;;;10.13;4.60;;;18.70;99.90;;;;;;5064004;28;20473;-70
2022/08/03 05:26:38;;;;;;;12.18;4.63;;;18.70;99.90;;;;;;5026921;28;20091;-70
2022/08/03 05:29:04;;;;;;;10.15;4.20;;;18.80;99.90;;;;;;5028501;28;20043;-70
2022/08/03 05:31:30;;;;;;;9.85;4.15;;;18.80;99.90;;;;;;5033403;28;20072;-70
2022/08/03 05:33:56;;;;;;;8.25;4.00;;;18.90;99.90;;;;;;5025786;28;20036;-70
2022/08/03 05:36:22;;;;;;;8.82;3.53;;;18.90;99.90;;;;;;5045105;28;20286;-70
2022/08/03 05:38:47;;;;;;;9.88;4.03;;;19.00;99.90;;;;;;5025834;28;20457;-70
2022/08/03 05:41:13;;;;;;;11.43;3.90;;;19.00;99.90;;;;;;5043868;28;20040;-70
2022/08/03 05:43:39;;;;;;;8.27;3.60;;;19.10;99.90;;;;;;5042134;28;20383;-70
2022/08/03 05:46:05;;;;;;;9.93;3.70;;;19.10;99.90;;;;;;5041295;28;20083;-70
2022/08/03 05:48:30;;;;;;;11.65;4.53;;;19.20;99.90;;;;;;5045965;28;20052;-70
2022/08/03 05:50:56;;;;;;;10.40;3.97;;;19.20;99.90;;;;;;5026723;28;20490;-70
2022/08/03 05:53:22;;;;;;;9.73;4.18;;;19.30;99.90;;;;;;5043244;28;20094;-70
2022/08/03 05:55:47;;;;;;;11.35;4.22;;;19.30;99.90;;;;;;5044189;28;20044;-70
2022/08/03 05:58:13;;;;;;;11.82;3.92;;;19.40;99.90;;;;;;5057677;28;20520;-70
2022/08/03 06:00:39;;;;;;;13.40;4.88;;;19.40;99.90;;;;;;5040412;28;20093;-70
2022/08/03 06:03:05;;;;;;;9.88;3.72;;;19.50;99.90;;;;;;5028255;28;20068;-70
2022/08/03 06:05:31;;;;;;;15.45;4.20;;;19.50;99.90;;;;;;5044671;28;20127;-70
2022/08/03 06:07:57;;;;;;;8.15;3.70;;;19.50;99.90;;;;;;5039291;28;20151;-70
2022/08/03 06:10:22;;;;;;;10.48;3.72;;;19.60;99.90;;;;;;5028570;28;20051;-70
2022/08/03 06:12:49;;;;;;;7.30;4.22;;;19.70;99.90;;;;;;5023937;28;20123;-70
2022/08/03 06:15:15;;;;;;;14.57;4.50;;;19.70;99.90;;;;;;5057511;28;20032;-70
2022/08/03 06:17:49;;;;;;;8.50;3.78;;;19.80;99.90;;;;;;5042507;28;20036;-70
2022/08/03 06:20:19;;;;;;;11.98;4.43;;;19.80;99.90;;;;;;5043476;28;20044;-70
2022/08/03 06:22:46;;;;;;;9.68;4.57;;;19.90;99.90;;;;;;5027689;28;20129;-70
2022/08/03 06:25:12;;;;;;;14.88;4.95;;;20.00;99.90;;;;;;5059282;28;20041;-70
2022/08/03 06:27:39;;;;;;;14.00;4.32;;;20.10;99.90;;;;;;5025800;28;20041;-70
2022/08/03 06:30:07;;;;;;;15.18;3.97;;;20.10;99.90;;;;;;5042468;28;20053;-70
2022/08/03 06:32:33;;;;;;;9.95;4.28;;;20.20;99.90;;;;;;5025371;28;20078;-70
2022/08/03 06:34:59;;;;;;;10.27;4.32;;;20.30;99.90;;;;;;5023952;28;20044;-70
2022/08/03 06:37:25;;;;;;;14.52;4.70;;;20.40;99.90;;;;;;5044019;28;20116;-70
2022/08/03 06:39:52;;;;;;;10.85;4.13;;;20.50;99.90;;;;;;5042455;28;20043;-70
2022/08/03 06:42:17;;;;;;;15.30;4.35;;;20.50;99.90;;;;;;5034254;28;20033;-70
2022/08/03 06:44:43;;;;;;;16.13;4.68;;;20.60;99.90;;;;;;5034402;28;20307;-70
2022/08/03 06:47:09;;;;;;;12.60;4.00;;;20.70;99.90;;;;;;5049997;28;20060;-71
2022/08/03 06:49:35;;;;;;;12.50;3.70;;;20.70;99.90;;;;;;5034634;28;20148;-71
2022/08/03 06:52:00;;;;;;;9.48;4.07;;;20.80;99.90;;;;;;4988198;28;20049;-71
2022/08/03 06:54:26;;;;;;;11.52;4.22;;;20.80;99.90;;;;;;5005849;28;20040;-70
2022/08/03 06:56:52;;;;;;;15.73;5.13;;;20.90;99.90;;;;;;5035947;28;20548;-70
2022/08/03 06:59:18;;;;;;;14.63;4.07;;;21.00;99.90;;;;;;5039687;28;20052;-72
2022/08/03 07:01:44;;;;;;;10.40;3.60;;;21.10;99.90;;;;;;5020478;28;20033;-70
2022/08/03 07:04:10;;;;;;;10.57;4.05;;;21.10;99.90;;;;;;5003815;28;20038;-70
2022/08/03 07:06:37;;;;;;;13.63;4.28;;;21.10;99.90;;;;;;4988133;28;20049;-71
2022/08/03 07:09:04;;;;;;;14.38;4.32;;;21.20;99.90;;;;;;5020159;28;20107;-71
2022/08/03 07:11:29;;;;;;;8.48;3.40;;;21.20;99.90;;;;;;5003393;28;20528;-71
2022/08/03 07:13:55;;;;;;;11.80;3.72;;;21.30;99.90;;;;;;4987638;28;20068;-71
2022/08/03 07:16:21;;;;;;;14.25;3.47;;;21.30;99.90;;;;;;5021986;28;20479;-71
2022/08/03 07:18:47;;;;;;;9.80;4.03;;;21.40;99.90;;;;;;5019244;28;20129;-71
2022/08/03 07:21:14;;;;;;;13.20;3.78;;;21.50;99.90;;;;;;4986124;28;20136;-70
2022/08/03 07:23:40;;;;;;;11.05;3.75;;;21.50;99.90;;;;;;5037810;28;20120;-71
2022/08/03 07:26:06;;;;;;;10.45;3.97;;;21.60;99.90;;;;;;5002856;28;20112;-71
2022/08/03 07:28:32;;;;;;;11.52;4.20;;;21.60;99.90;;;;;;5019887;28;20490;-71
2022/08/03 07:30:58;;;;;;;10.20;4.03;;;21.70;99.90;;;;;;5020354;28;20706;-71
2022/08/03 07:33:24;;;;;;;11.90;4.00;;;21.70;99.90;;;;;;5004801;28;20106;-71
2022/08/03 07:35:50;;;;;;;10.20;4.10;;;21.80;99.90;;;;;;5019090;28;20037;-71
2022/08/03 07:38:15;;;;;;;11.73;3.67;;;21.80;99.90;;;;;;5001842;28;20514;-71
2022/08/03 07:40:41;;;;;;;13.68;3.92;;;21.80;99.90;;;;;;5002077;28;20041;-70
2022/08/03 07:43:07;;;;;;;13.98;3.90;;;21.90;99.90;;;;;;5002871;28;20115;-71
2022/08/03 07:45:33;;;;;;;17.38;4.13;;;22.00;99.90;;;;;;5021986;28;20534;-71
2022/08/03 07:47:58;;;;;;;11.02;2.92;;;22.10;99.90;;;;;;5007277;28;20040;-70
2022/08/03 07:50:25;;;;;;;11.02;3.60;;;22.20;99.90;;;;;;5007482;28;20098;-70
2022/08/03 07:52:52;;;;;;;15.55;3.40;;;22.30;99.90;;;;;;5007795;28;20053;-71
2022/08/03 07:55:20;;;;;;;10.60;4.38;;;22.50;99.90;;;;;;4992135;28;20045;-71
2022/08/03 07:57:46;;;;;;;11.15;3.70;;;22.50;99.90;;;;;;5023881;28;20048;-71
2022/08/03 08:00:18;;;;;;;12.95;3.88;;;22.60;99.90;;;;;;5024475;28;20369;-71
2022/08/03 08:02:44;;;;;;;12.40;3.70;;;22.60;99.90;;;;;;5008280;28;20041;-71
2022/08/03 08:05:10;;;;;;;13.98;4.00;;;22.70;99.90;;;;;;5040833;28;20418;-71
2022/08/03 08:07:37;;;;;;;13.13;3.60;;;22.70;99.90;;;;;;5041172;28;20213;-71
2022/08/03 08:10:05;;;;;;;14.68;4.32;;;22.80;99.90;;;;;;5021408;28;20041;-70
2022/08/03 08:12:30;;;;;;;13.95;3.97;;;22.90;99.90;;;;;;5020380;28;20065;-70
2022/08/03 08:14:56;;;;;;;11.77;3.95;;;23.00;99.90;;;;;;5006295;28;20120;-71
2022/08/03 08:17:22;;;;;;;12.70;3.55;;;23.20;99.90;;;;;;5020738;28;20041;-70
2022/08/03 08:19:47;;;;;;;11.55;3.95;;;23.30;99.90;;;;;;5016407;28;20164;-70
2022/08/03 08:22:13;;;;;;;15.38;3.65;;;23.40;99.90;;;;;;5020905;28;20048;-71
2022/08/03 08:24:39;;;;;;;8.95;3.25;;;23.50;99.90;;;;;;5019054;28;20717;-71
2022/08/03 08:27:04;;;;;;;8.00;3.50;;;23.60;99.90;;;;;;5007696;28;20044;-71
2022/08/03 08:29:30;;;;;;;12.90;3.88;;;23.70;99.90;;;;;;5043843;28;20497;-71
2022/08/03 08:31:56;;;;;;;14.75;3.45;;;23.70;99.90;;;;;;5009226;28;20482;-72
2022/08/03 08:34:22;;;;;;;14.45;3.88;;;23.80;99.90;;;;;;4992608;28;20555;-70
2022/08/03 08:36:47;;;;;;;15.48;3.55;;;23.90;99.90;;;;;;5025128;28;20033;-71
2022/08/03 08:39:13;;;;;;;12.73;3.47;;;24.00;99.90;;;;;;5043269;28;20041;-71
2022/08/03 08:41:39;;;;;;;13.00;3.90;;;24.10;99.90;;;;;;5005111;28;20072;-70
2022/08/03 08:44:07;;;;;;;11.50;3.53;;;24.20;99.90;;;;;;5017673;28;20390;-71
2022/08/03 08:46:33;;;;;;;12.80;3.65;;;24.30;99.90;;;;;;5015828;28;20111;-71
2022/08/03 08:48:59;;;;;;;12.00;3.28;;;24.40;99.90;;;;;;4985148;28;20041;-71
2022/08/03 08:51:33;;;;;;;10.73;3.42;;;24.50;99.90;;;;;;4986363;28;20059;-71
2022/08/03 08:54:03;;;;;;;16.35;3.72;;;24.70;99.90;;;;;;5002894;28;20202;-71
2022/08/03 08:56:31;;;;;;;15.38;3.95;;;24.80;99.90;;;;;;5001370;28;20424;-71
2022/08/03 08:59:00;;;;;;;14.82;4.03;;;24.90;99.90;;;;;;5002577;28;20056;-70
2022/08/03 09:01:26;;;;;;;17.08;4.32;;;25.00;99.90;;;;;;4985896;28;20068;-71
2022/08/03 09:03:53;;;;;;;14.80;3.50;;;24.90;99.90;;;;;;4985980;28;20034;-71
2022/08/03 09:06:22;;;;;;;13.32;3.28;;;25.00;99.90;;;;;;4985494;28;20120;-71
2022/08/03 09:08:48;;;;;;;12.27;4.20;;;25.10;99.90;;;;;;4986719;28;20063;-71
2022/08/03 09:11:14;;;;;;;17.77;3.72;;;25.10;99.90;;;;;;4985311;28;20398;-71
2022/08/03 09:13:40;;;;;;;16.33;3.70;;;25.00;99.90;;;;;;4986230;28;20148;-72
2022/08/03 09:16:14;;;;;;;11.85;3.72;;;25.10;99.90;;;;;;4971471;28;20043;-71
2022/08/03 09:18:45;;;;;;;14.88;4.70;;;25.20;99.90;;;;;;5000184;28;20033;-71
2022/08/03 09:21:13;;;;;;;13.05;4.93;;;25.40;99.90;;;;;;5001717;28;20430;-71
2022/08/03 09:23:45;;;;;;;12.88;3.55;;;25.50;99.90;;;;;;5004183;28;20046;-71
2022/08/03 09:26:11;;;;;;;14.85;3.53;;;25.60;99.90;;;;;;4987167;28;20043;-71
2022/08/03 09:28:37;;;;;;;15.50;4.43;;;25.60;99.90;;;;;;5004177;28;20450;-71
2022/08/03 09:31:03;;;;;;;10.75;4.07;;;25.80;99.90;;;;;;4990820;28;20041;-71
2022/08/03 09:33:29;;;;;;;14.57;3.42;;;25.90;99.90;;;;;;5004339;28;20076;-71
2022/08/03 09:35:55;;;;;;;15.20;3.83;;;26.00;99.90;;;;;;4986561;28;20048;-71
2022/08/03 09:38:27;;;;;;;12.52;4.63;;;26.10;99.90;;;;;;5005811;28;20108;-72
2022/08/03 09:40:54;;;;;;;11.88;3.28;;;26.20;99.90;;;;;;5022769;28;20044;-72
2022/08/03 09:43:20;;;;;;;13.07;3.55;;;26.20;99.90;;;;;;5003230;28;20498;-71
2022/08/03 09:45:46;;;;;;;14.70;3.50;;;26.30;99.90;;;;;;4989128;28;20494;-71
2022/08/03 09:48:28;;;;;;;12.57;3.67;;;26.20;99.90;;;;;;5023870;28;20121;-71
2022/08/03 09:50:56;;;;;;;14.67;4.67;;;26.40;99.90;;;;;;5023543;28;20128;-72
2022/08/03 09:53:22;;;;;;;13.00;3.20;;;26.40;99.90;;;;;;5022444;28;20040;-71
2022/08/03 09:55:55;;;;;;;11.68;3.80;;;26.50;99.90;;;;;;5023253;28;20033;-72
2022/08/03 09:58:22;;;;;;;13.50;3.50;;;26.50;99.90;;;;;;5039228;28;20047;-72
2022/08/03 10:00:53;;;;;;;12.77;3.25;;;26.60;99.90;;;;;;5020279;28;20517;-72
2022/08/03 10:03:19;;;;;;;14.93;3.53;;;26.70;99.90;;;;;;4988594;28;20171;-71
2022/08/03 10:05:45;;;;;;;15.02;3.25;;;26.70;99.90;;;;;;5021783;28;20071;-71
2022/08/03 10:08:15;;;;;;;14.90;4.25;;;26.80;99.90;;;;;;5043136;28;20840;-72
2022/08/03 10:10:42;;;;;;;14.23;3.47;;;26.80;99.90;;;;;;5028288;28;20055;-71
2022/08/03 10:13:12;;;;;;;14.00;3.63;;;27.00;99.90;;;;;;5022789;28;20414;-72
2022/08/03 10:15:39;;;;;;;12.18;3.33;;;27.00;99.90;;;;;;5018689;28;20033;-72
2022/08/03 10:18:05;;;;;;;13.57;3.42;;;27.00;99.90;;;;;;5040154;28;21136;-72
2022/08/03 10:20:47;;;;;;;14.10;3.55;;;26.90;99.90;;;;;;5011098;28;20037;-72
2022/08/03 10:23:16;;;;;;;13.73;2.97;;;27.10;99.90;;;;;;5044150;28;20056;-71
2022/08/03 10:25:43;;;;;;;13.65;3.10;;;27.30;99.90;;;;;;5042139;28;20055;-72
2022/08/03 10:28:13;;;;;;;16.88;3.30;;;27.40;99.90;;;;;;5039468;28;20537;-71
2022/08/03 10:30:46;;;;;;;9.32;3.05;;;27.50;99.80;;;;;;5022703;28;20430;-72
2022/08/03 10:33:26;;;;;;;20.98;3.67;;;27.70;99.70;;;;;;5007137;28;20038;-71
2022/08/03 10:35:55;;;;;;;11.23;3.15;;;27.80;98.60;;;;;;5017109;28;20075;-71
2022/08/03 10:38:39;;;;;;;11.00;3.83;;;27.90;99.00;;;;;;5063073;28;20097;-70
2022/08/03 10:41:07;;;;;;;12.63;3.42;;;28.00;98.80;;;;;;5027127;28;20032;-71
2022/08/03 10:43:49;;;;;;;16.85;3.60;;;28.00;98.30;;;;;;5027585;28;20044;-71
2022/08/03 10:46:17;;;;;;;14.57;2.63;;;28.20;98.40;;;;;;5031085;28;20106;-71
2022/08/03 10:48:44;;;;;;;14.23;3.60;;;28.40;98.00;;;;;;5033939;28;20067;-71
2022/08/03 10:51:11;;;;;;;13.07;3.53;;;28.40;97.40;;;;;;5028321;28;20040;-71
2022/08/03 10:53:39;;;;;;;10.02;3.08;;;28.50;97.40;;;;;;5028422;28;20409;-71
2022/08/03 10:58:53;;;;;;;16.23;3.22;;;28.70;95.60;;;;;;5048483;28;20044;-71
2022/08/03 11:01:39;;;;;;;18.88;3.20;;;28.70;95.60;;;;;;5015585;28;20037;-71
2022/08/03 11:04:05;;;;;;;11.65;3.45;;;28.80;96.20;;;;;;5046290;28;20451;-71
2022/08/03 11:06:30;;;;;;;13.02;3.17;;;28.90;96.20;;;;;;5043376;28;20155;-72
2022/08/03 11:09:08;;;;;;;11.38;3.17;;;29.00;95.50;;;;;;4961725;28;20053;-71
2022/08/03 11:11:35;;;;;;;15.55;3.55;;;29.10;95.10;;;;;;4961421;28;20054;-72
2022/08/03 11:14:09;;;;;;;10.70;3.22;;;29.20;95.20;;;;;;4962152;28;20053;-72
2022/08/03 11:16:39;;;;;;;14.10;3.55;;;29.40;95.00;;;;;;4964133;28;20881;-72
2022/08/03 11:19:09;;;;;;;11.45;3.55;;;29.40;94.50;;;;;;4965730;28;20049;-72
2022/08/03 11:21:50;;;;;;;11.10;3.30;;;29.50;94.10;;;;;;4966875;28;20054;-72
2022/08/03 11:24:42;;;;;;;17.85;3.33;;;29.40;92.00;;;;;;4965667;28;20053;-72
2022/08/03 11:27:16;;;;;;;;;;;29.40;92.50;;;;;;4966795;28;20085;-72
2022/08/03 11:30:05;;;;;;;15.25;3.97;;;29.60;93.90;;;;;;4965204;28;19980;-72
2022/08/03 11:32:51;;;;;;;11.80;3.08;;;29.80;93.60;;;;;;4965963;28;20128;-73
2022/08/03 11:35:21;;;;;;;12.00;3.40;;;29.90;93.30;;;;;;4965698;28;20046;-73
2022/08/03 11:37:58;;;;;;;19.95;4.00;;;30.00;92.40;;;;;;4982021;28;20208;-73
2022/08/03 11:40:49;;;;;;;13.50;3.40;;;29.90;92.10;;;;;;4949185;28;20054;-73
2022/08/03 11:43:21;;;;;;;10.95;3.08;;;30.00;92.50;;;;;;4949977;28;20046;-74
2022/08/03 11:45:58;;;;;;;9.15;2.67;;;30.10;91.10;;;;;;4978014;28;20096;-73
2022/08/03 11:48:32;;;;;;;11.10;3.42;;;30.20;91.10;;;;;;5024620;28;20053;-73
2022/08/03 11:51:19;;;;;;;18.30;4.07;;;30.20;91.00;;;;;;5008275;28;20297;-73
2022/08/03 11:53:48;;;;;;;11.52;3.60;;;30.30;90.60;;;;;;5011441;28;20075;-73
2022/08/03 11:56:13;;;;;;;12.95;3.20;;;30.30;91.10;;;;;;5008761;28;20102;-73
2022/08/03 11:58:51;;;;;;;14.65;2.90;;;30.30;90.60;;;;;;5024064;28;20125;-73
2022/08/03 12:01:18;;;;;;;15.40;3.22;;;30.50;91.30;;;;;;5025097;28;20029;-73
2022/08/03 12:03:44;;;;;;;13.55;2.90;;;30.50;90.10;;;;;;5025064;28;20045;-72
2022/08/03 12:06:11;;;;;;;12.30;3.00;;;30.50;89.40;;;;;;5023958;28;20484;-73
2022/08/03 12:08:38;;;;;;;17.25;3.60;;;30.50;90.10;;;;;;5024649;28;20072;-73
2022/08/03 12:11:05;;;;;;;15.35;3.15;;;30.60;90.40;;;;;;5011250;28;20048;-73
2022/08/03 12:13:46;;;;;;;10.68;3.40;;;30.70;89.50;;;;;;4992881;28;20038;-73
2022/08/03 12:16:19;;;;;;;9.38;2.90;;;30.70;90.10;;;;;;4991513;28;20043;-73
2022/08/03 12:18:55;;;;;;;15.18;2.60;;;30.80;88.30;;;;;;5012532;28;20041;-73
2022/08/03 12:21:23;;;;;;;16.33;2.90;;;30.70;87.80;;;;;;5012445;28;20029;-73
2022/08/03 12:23:49;;;;;;;11.45;2.65;;;30.80;87.30;;;;;;5012865;28;20057;-73
2022/08/03 12:26:15;;;;;;;14.80;2.97;;;30.70;87.70;;;;;;4996058;28;20128;-73
2022/08/03 12:28:48;;;;;;;10.10;2.60;;;30.70;86.10;;;;;;4992834;28;20474;-74
2022/08/03 12:31:14;;;;;;;11.75;2.72;;;30.60;84.40;;;;;;5005728;28;20041;-73
2022/08/03 12:34:07;;;;;;;15.00;3.20;;;30.70;86.70;;;;;;5009876;28;20510;-74
2022/08/03 12:36:34;;;;;;;9.93;2.90;;;30.80;87.00;;;;;;5011979;28;20410;-73
2022/08/03 12:39:08;;;;;;;11.48;3.30;;;30.90;86.20;;;;;;4995994;28;20042;-73
2022/08/03 12:41:38;;;;;;;16.70;2.88;;;30.90;85.70;;;;;;5007282;28;20574;-74
2022/08/03 12:44:08;;;;;;;11.13;3.20;;;30.90;83.50;;;;;;5020253;28;20159;-75
2022/08/03 12:46:37;;;;;;;10.65;3.13;;;31.00;86.80;;;;;;5000099;28;20057;-76
2022/08/03 12:49:03;;;;;;;11.40;2.90;;;31.10;84.60;;;;;;5020146;28;20138;-75
2022/08/03 12:51:32;;;;;;;15.05;3.38;;;31.10;84.70;;;;;;5017951;28;20502;-75
2022/08/03 12:53:58;;;;;;;13.55;2.80;;;31.10;83.50;;;;;;5018142;28;20052;-74
2022/08/03 12:56:24;;;;;;;10.98;3.08;;;31.10;83.00;;;;;;5018036;28;20040;-74
2022/08/03 12:58:51;;;;;;;12.20;2.83;;;31.10;83.20;;;;;;5006299;28;20304;-74
2022/08/03 13:01:21;;;;;;;10.07;2.80;;;31.00;81.70;;;;;;5007373;28;20513;-74